createdAt,value
2019-05-13T00:01:23.870Z,6.70
2019-05-13T00:02:58.224Z,6.28
2019-05-13T00:04:33.897Z,6.20
2019-05-13T00:06:08.114Z,6.00
2019-05-13T00:07:43.783Z,6.37
2019-05-13T00:09:18.584Z,6.85
2019-05-13T00:10:54.201Z,6.40
2019-05-13T00:12:28.699Z,6.70
2019-05-13T00:14:04.392Z,6.65
2019-05-13T00:15:38.873Z,6.80
2019-05-13T00:17:14.708Z,6.75
2019-05-13T00:18:48.948Z,7.00
2019-05-13T00:20:24.204Z,6.87
2019-05-13T00:21:58.618Z,6.80
2019-05-13T00:23:34.086Z,6.08
2019-05-13T00:25:08.516Z,6.35
2019-05-13T00:26:44.518Z,5.72
2019-05-13T00:28:19.263Z,6.45
2019-05-13T00:29:54.477Z,6.80
2019-05-13T00:31:28.679Z,5.85
2019-05-13T00:33:03.909Z,5.97
2019-05-13T00:34:38.266Z,5.75
2019-05-13T00:36:14.247Z,5.67
2019-05-13T00:37:48.664Z,6.30
2019-05-13T00:39:24.569Z,5.92
2019-05-13T00:40:59.252Z,6.17
2019-05-13T00:42:34.444Z,6.40
2019-05-13T00:44:08.655Z,6.12
2019-05-13T00:45:44.481Z,5.35
2019-05-13T00:47:18.886Z,5.67
2019-05-13T00:48:54.287Z,6.10
2019-05-13T00:50:28.481Z,8.60
2019-05-13T00:52:03.890Z,8.55
2019-05-13T00:53:38.296Z,7.78
2019-05-13T00:55:14.852Z,7.47
2019-05-13T00:56:49.808Z,6.58
2019-05-13T00:58:24.569Z,6.47
2019-05-13T00:59:58.815Z,6.60
2019-05-13T01:01:33.996Z,6.45
2019-05-13T01:03:08.205Z,5.55
2019-05-13T01:04:44.497Z,6.95
2019-05-13T01:06:18.764Z,5.90
2019-05-13T01:07:54.108Z,6.08
2019-05-13T01:09:28.318Z,6.42
2019-05-13T01:11:04.240Z,6.05
2019-05-13T01:12:39.540Z,6.62
2019-05-13T01:14:14.542Z,5.33
2019-05-13T01:15:48.716Z,5.05
2019-05-13T01:17:23.664Z,5.50
2019-05-13T01:18:57.950Z,5.87
2019-05-13T01:20:34.498Z,7.08
2019-05-13T01:22:09.119Z,6.45
2019-05-13T01:23:44.043Z,6.30
2019-05-13T01:25:18.234Z,8.35
2019-05-13T01:26:54.163Z,8.20
2019-05-13T01:28:29.354Z,8.93
2019-05-13T01:30:06.611Z,8.43
2019-05-13T01:31:43.237Z,9.28
2019-05-13T01:33:17.720Z,8.68
2019-05-13T01:34:53.844Z,8.80
2019-05-13T01:36:28.405Z,9.33
2019-05-13T01:38:04.632Z,9.60
2019-05-13T01:39:39.886Z,9.20
2019-05-13T01:41:14.123Z,9.78
2019-05-13T01:42:48.671Z,10.20
2019-05-13T01:44:24.383Z,9.65
2019-05-13T01:45:59.695Z,8.58
2019-05-13T01:47:34.533Z,10.72
2019-05-13T01:49:09.513Z,10.63
2019-05-13T01:50:44.493Z,11.10
2019-05-13T01:52:20.107Z,8.48
2019-05-13T01:53:54.316Z,9.08
2019-05-13T01:55:29.144Z,12.28
2019-05-13T01:57:04.505Z,8.58
2019-05-13T01:58:40.029Z,9.00
2019-05-13T02:00:14.529Z,8.40
2019-05-13T02:01:49.331Z,8.68
2019-05-13T02:03:24.611Z,8.43
2019-05-13T02:04:59.926Z,9.73
2019-05-13T02:06:34.147Z,7.95
2019-05-13T02:08:08.976Z,8.53
2019-05-13T02:09:44.337Z,9.70
2019-05-13T02:11:19.842Z,9.95
2019-05-13T02:12:54.054Z,8.88
2019-05-13T02:14:28.820Z,9.93
2019-05-13T02:16:04.101Z,10.23
2019-05-13T02:17:39.736Z,9.35
2019-05-13T02:19:14.365Z,10.88
2019-05-13T02:20:49.273Z,10.18
2019-05-13T02:22:24.778Z,10.05
2019-05-13T02:24:00.145Z,9.55
2019-05-13T02:25:34.436Z,9.98
2019-05-13T02:27:09.332Z,10.05
2019-05-13T02:28:43.779Z,9.85
2019-05-13T02:30:19.446Z,9.78
2019-05-13T02:31:56.210Z,9.80
2019-05-13T02:33:33.564Z,9.88
2019-05-13T02:35:06.733Z,10.00
2019-05-13T02:36:43.858Z,10.10
2019-05-13T02:38:24.838Z,9.48
2019-05-13T02:39:54.281Z,9.60
2019-05-13T02:41:28.637Z,10.32
2019-05-13T02:43:03.985Z,9.53
2019-05-13T02:44:38.204Z,9.95
2019-05-13T02:46:13.293Z,9.73
2019-05-13T02:47:47.520Z,10.63
2019-05-13T02:49:23.101Z,9.45
2019-05-13T02:50:57.776Z,10.13
2019-05-13T02:52:33.465Z,9.83
2019-05-13T02:54:08.018Z,10.08
2019-05-13T02:55:43.832Z,9.60
2019-05-13T02:57:18.241Z,9.20
2019-05-13T02:58:53.027Z,10.80
2019-05-13T03:00:27.305Z,9.48
2019-05-13T03:02:03.855Z,10.05
2019-05-13T03:03:38.405Z,9.80
2019-05-13T03:05:14.135Z,10.03
2019-05-13T03:06:48.486Z,10.78
2019-05-13T03:08:39.134Z,10.98
2019-05-13T03:10:03.795Z,10.30
2019-05-13T03:11:36.369Z,10.35
2019-05-13T03:13:12.643Z,9.95
2019-05-13T03:14:48.602Z,9.73
2019-05-13T03:16:27.504Z,9.70
2019-05-13T03:18:06.260Z,9.30
2019-05-13T03:19:43.245Z,10.38
2019-05-13T03:21:17.126Z,9.73
2019-05-13T03:22:52.619Z,10.15
2019-05-13T03:24:27.764Z,9.35
2019-05-13T03:26:03.122Z,10.80
2019-05-13T03:27:38.671Z,10.88
2019-05-13T03:29:13.322Z,9.88
2019-05-13T03:30:48.406Z,9.95
2019-05-13T03:32:26.170Z,9.88
2019-05-13T03:34:05.709Z,10.63
2019-05-13T03:35:37.267Z,10.35
2019-05-13T03:37:15.304Z,10.68
2019-05-13T03:39:05.953Z,10.48
2019-05-13T03:40:29.234Z,10.70
2019-05-13T03:42:04.196Z,10.38
2019-05-13T03:43:42.945Z,9.83
2019-05-13T03:45:16.873Z,10.00
2019-05-13T03:46:55.381Z,9.53
2019-05-13T03:48:33.402Z,9.38
2019-05-13T03:50:08.637Z,9.93
2019-05-13T03:51:43.117Z,9.88
2019-05-13T03:53:18.573Z,9.93
2019-05-13T03:54:53.666Z,8.88
2019-05-13T03:56:28.652Z,8.95
2019-05-13T03:58:03.312Z,8.30
2019-05-13T03:59:38.575Z,8.93
2019-05-13T04:01:13.604Z,8.80
2019-05-13T04:02:51.907Z,8.95
2019-05-13T04:04:24.913Z,9.25
2019-05-13T04:06:03.293Z,8.93
2019-05-13T04:07:35.992Z,8.65
2019-05-13T04:09:22.482Z,8.50
2019-05-13T04:10:46.681Z,9.03
2019-05-13T04:12:22.772Z,9.00
2019-05-13T04:13:57.393Z,9.03
2019-05-13T04:15:32.261Z,9.25
2019-05-13T04:17:06.510Z,8.70
2019-05-13T04:18:42.523Z,9.40
2019-05-13T04:20:17.302Z,9.40
2019-05-13T04:21:52.920Z,8.58
2019-05-13T04:23:27.391Z,9.53
2019-05-13T04:25:02.643Z,8.45
2019-05-13T04:26:36.929Z,8.60
2019-05-13T04:28:13.370Z,8.73
2019-05-13T04:29:48.085Z,9.53
2019-05-13T04:31:23.229Z,8.65
2019-05-13T04:32:57.444Z,8.80
2019-05-13T04:34:33.949Z,9.20
2019-05-13T04:36:08.685Z,9.25
2019-05-13T04:37:43.751Z,9.43
2019-05-13T04:39:38.867Z,9.08
2019-05-13T04:40:54.568Z,8.13
2019-05-13T04:42:28.846Z,8.68
2019-05-13T04:44:04.082Z,8.23
2019-05-13T04:45:38.254Z,7.72
2019-05-13T04:47:13.135Z,8.53
2019-05-13T04:48:47.650Z,8.05
2019-05-13T04:50:23.046Z,7.05
2019-05-13T04:51:57.325Z,7.28
2019-05-13T04:53:33.312Z,6.87
2019-05-13T04:55:08.191Z,6.78
2019-05-13T04:56:43.589Z,7.70
2019-05-13T04:58:17.823Z,6.85
2019-05-13T04:59:55.011Z,6.37
2019-05-13T05:01:52.215Z,5.75
2019-05-13T05:03:33.503Z,6.37
2019-05-13T05:05:28.392Z,6.40
2019-05-13T05:07:22.221Z,6.40
2019-05-13T05:09:08.438Z,7.75
2019-05-13T05:11:04.137Z,6.80
2019-05-13T05:13:16.400Z,6.90
2019-05-13T05:15:06.120Z,7.60
2019-05-13T05:17:15.062Z,7.00
2019-05-13T05:19:13.692Z,7.78
2019-05-13T05:21:01.473Z,7.87
2019-05-13T05:22:41.869Z,7.67
2019-05-13T05:24:53.247Z,8.60
2019-05-13T05:26:47.360Z,8.10
2019-05-13T05:28:46.923Z,8.63
2019-05-13T05:30:58.758Z,8.15
2019-05-13T05:32:45.659Z,8.48
2019-05-13T05:34:28.668Z,8.88
2019-05-13T05:36:41.458Z,8.23
2019-05-13T05:38:25.830Z,8.23
2019-05-13T05:40:01.930Z,8.70
2019-05-13T05:41:37.572Z,8.33
2019-05-13T05:43:14.759Z,7.70
2019-05-13T05:44:52.815Z,7.72
2019-05-13T05:46:28.774Z,7.42
2019-05-13T05:48:05.087Z,7.30
2019-05-13T05:49:42.793Z,7.67
2019-05-13T05:51:22.157Z,7.67
2019-05-13T05:52:58.129Z,8.40
2019-05-13T05:54:36.064Z,7.45
2019-05-13T05:56:13.447Z,7.22
2019-05-13T05:57:52.218Z,7.65
2019-05-13T05:59:27.550Z,7.40
2019-05-13T06:01:04.027Z,7.20
2019-05-13T06:02:42.491Z,7.20
2019-05-13T06:04:16.488Z,7.87
2019-05-13T06:05:51.321Z,7.03
2019-05-13T06:07:26.285Z,7.05
2019-05-13T06:09:01.943Z,7.78
2019-05-13T06:10:49.091Z,7.60
2019-05-13T06:12:13.691Z,7.83
2019-05-13T06:13:51.556Z,7.47
2019-05-13T06:15:24.821Z,7.33
2019-05-13T06:17:02.404Z,6.60
2019-05-13T06:18:35.928Z,7.12
2019-05-13T06:20:13.224Z,6.15
2019-05-13T06:21:47.740Z,6.05
2019-05-13T06:23:22.522Z,5.17
2019-05-13T06:24:57.556Z,4.72
2019-05-13T06:26:32.178Z,4.15
2019-05-13T06:28:06.721Z,5.87
2019-05-13T06:29:42.352Z,5.55
2019-05-13T06:31:17.313Z,5.92
2019-05-13T06:32:52.501Z,5.55
2019-05-13T06:34:27.380Z,6.17
2019-05-13T06:36:02.513Z,5.47
2019-05-13T06:37:36.985Z,5.60
2019-05-13T06:39:12.485Z,5.47
2019-05-13T06:41:02.512Z,5.33
2019-05-13T06:42:24.445Z,5.50
2019-05-13T06:43:58.905Z,5.03
2019-05-13T06:45:33.500Z,5.55
2019-05-13T06:47:07.902Z,5.58
2019-05-13T06:48:42.678Z,5.65
2019-05-13T06:50:17.072Z,5.53
2019-05-13T06:51:52.742Z,5.15
2019-05-13T06:53:27.402Z,4.90
2019-05-13T06:55:02.875Z,5.55
2019-05-13T06:56:37.793Z,5.53
2019-05-13T06:58:14.088Z,5.30
2019-05-13T06:59:48.494Z,5.22
2019-05-13T07:01:23.421Z,5.05
2019-05-13T07:02:57.873Z,4.58
2019-05-13T07:04:32.923Z,4.45
2019-05-13T07:06:07.464Z,4.53
2019-05-13T07:07:42.480Z,4.20
2019-05-13T07:09:17.030Z,4.35
2019-05-13T07:10:51.758Z,3.60
2019-05-13T07:12:26.129Z,2.98
2019-05-13T07:14:02.410Z,3.30
2019-05-13T07:15:37.289Z,3.27
2019-05-13T07:17:12.457Z,3.30
2019-05-13T07:18:47.096Z,3.00
2019-05-13T07:20:23.172Z,2.98
2019-05-13T07:21:57.629Z,2.75
2019-05-13T07:23:32.324Z,3.00
2019-05-13T07:25:07.394Z,2.92
2019-05-13T07:26:42.153Z,3.05
2019-05-13T07:28:16.549Z,2.92
2019-05-13T07:29:52.545Z,3.12
2019-05-13T07:31:27.236Z,2.37
2019-05-13T07:33:02.045Z,3.67
2019-05-13T07:34:36.433Z,4.78
2019-05-13T07:36:12.785Z,9.28
2019-05-13T07:37:47.598Z,3.50
2019-05-13T07:39:22.776Z,2.65
2019-05-13T07:41:02.312Z,2.90
2019-05-13T07:42:36.933Z,3.62
2019-05-13T07:44:11.965Z,2.75
2019-05-13T07:45:46.977Z,3.08
2019-05-13T07:47:22.286Z,2.58
2019-05-13T07:48:57.136Z,2.65
2019-05-13T07:50:32.219Z,2.37
2019-05-13T07:52:07.497Z,2.00
2019-05-13T07:53:42.631Z,2.12
2019-05-13T07:55:17.408Z,1.70
2019-05-13T07:56:52.484Z,1.70
2019-05-13T07:58:28.016Z,1.60
2019-05-13T08:00:02.400Z,1.45
2019-05-13T08:01:37.053Z,2.05
2019-05-13T08:03:12.425Z,1.50
2019-05-13T08:04:49.535Z,1.90
2019-05-13T08:06:23.660Z,1.60
2019-05-13T08:07:58.238Z,1.67
2019-05-13T08:09:32.700Z,1.75
2019-05-13T08:11:07.470Z,2.10
2019-05-13T08:12:41.873Z,2.20
2019-05-13T08:14:16.563Z,1.70
2019-05-13T08:15:54.413Z,1.52
2019-05-13T08:17:27.540Z,1.80
2019-05-13T08:19:02.062Z,1.95
2019-05-13T08:20:36.833Z,1.90
2019-05-13T08:22:12.143Z,1.87
2019-05-13T08:23:47.022Z,1.92
2019-05-13T08:25:22.279Z,1.60
2019-05-13T08:26:57.179Z,1.75
2019-05-13T08:28:32.478Z,1.50
2019-05-13T08:30:11.735Z,1.50
2019-05-13T08:31:45.284Z,1.57
2019-05-13T08:33:22.443Z,1.25
2019-05-13T08:35:01.306Z,1.30
2019-05-13T08:36:32.833Z,1.75
2019-05-13T08:38:07.869Z,1.98
2019-05-13T08:39:42.598Z,1.50
2019-05-13T08:41:19.393Z,1.60
2019-05-13T08:42:53.703Z,1.85
2019-05-13T08:44:28.166Z,1.40
2019-05-13T08:46:03.375Z,1.82
2019-05-13T08:47:37.758Z,1.60
2019-05-13T08:49:12.688Z,1.70
2019-05-13T08:50:47.082Z,1.57
2019-05-13T08:52:22.040Z,1.92
2019-05-13T08:53:57.381Z,1.52
2019-05-13T08:55:32.390Z,1.60
2019-05-13T08:57:06.833Z,1.50
2019-05-13T08:58:41.428Z,1.60
2019-05-13T09:00:21.458Z,1.92
2019-05-13T09:01:56.502Z,1.67
2019-05-13T09:03:32.505Z,1.70
2019-05-13T09:05:08.652Z,1.70
2019-05-13T09:06:43.958Z,1.75
2019-05-13T09:08:19.082Z,1.65
2019-05-13T09:09:53.482Z,2.00
2019-05-13T09:11:28.134Z,1.92
2019-05-13T09:13:02.673Z,1.70
2019-05-13T09:14:37.532Z,1.72
2019-05-13T09:16:14.828Z,1.80
2019-05-13T09:17:51.643Z,1.60
2019-05-13T09:19:25.440Z,1.50
2019-05-13T09:21:02.529Z,1.77
2019-05-13T09:22:36.585Z,1.45
2019-05-13T09:25:47.256Z,1.47
2019-05-13T09:27:22.634Z,1.17
2019-05-13T09:28:57.368Z,1.47
2019-05-13T09:30:31.954Z,1.40
2019-05-13T09:32:06.985Z,1.45
2019-05-13T09:33:41.889Z,1.12
2019-05-13T09:35:16.450Z,1.30
2019-05-13T09:36:51.885Z,1.87
2019-05-13T09:38:26.603Z,1.05
2019-05-13T09:40:02.545Z,1.20
2019-05-13T09:41:41.047Z,0.90
2019-05-13T09:43:13.287Z,0.60
2019-05-13T09:44:47.717Z,0.80
2019-05-13T09:46:22.740Z,0.70
2019-05-13T09:47:57.381Z,0.90
2019-05-13T09:49:32.841Z,0.98
2019-05-13T09:51:07.668Z,0.98
2019-05-13T09:52:42.985Z,1.30
2019-05-13T09:54:17.473Z,0.95
2019-05-13T09:55:52.471Z,0.90
2019-05-13T09:57:27.104Z,1.07
2019-05-13T09:59:02.073Z,0.90
2019-05-13T10:00:36.503Z,0.78
2019-05-13T10:03:57.045Z,0.82
2019-05-13T10:05:23.849Z,0.60
2019-05-13T10:06:58.317Z,0.53
2019-05-13T10:08:33.079Z,0.50
2019-05-13T10:10:08.932Z,0.90
2019-05-13T10:11:43.865Z,0.88
2019-05-13T10:13:18.414Z,0.78
2019-05-13T10:14:52.984Z,0.62
2019-05-13T10:16:27.365Z,0.72
2019-05-13T10:18:02.616Z,0.70
2019-05-13T10:19:37.006Z,1.07
2019-05-13T10:21:11.750Z,0.80
2019-05-13T10:22:46.137Z,1.00
2019-05-13T10:24:22.195Z,1.20
2019-05-13T10:26:03.361Z,0.60
2019-05-13T10:27:38.428Z,0.80
2019-05-13T10:29:13.052Z,0.93
2019-05-13T10:30:52.489Z,0.90
2019-05-13T10:32:24.894Z,0.70
2019-05-13T10:34:02.063Z,0.70
2019-05-13T10:35:37.080Z,0.82
2019-05-13T10:37:12.197Z,0.82
2019-05-13T10:38:46.503Z,0.57
2019-05-13T10:40:22.947Z,0.82
2019-05-13T10:41:57.333Z,0.70
2019-05-13T10:43:32.609Z,0.90
2019-05-13T10:45:12.857Z,1.02
2019-05-13T10:46:46.710Z,0.90
2019-05-13T10:48:22.016Z,0.90
2019-05-13T10:49:57.132Z,0.90
2019-05-13T10:51:32.727Z,1.02
2019-05-13T10:53:08.452Z,0.90
2019-05-13T10:54:42.660Z,0.80
2019-05-13T10:56:17.952Z,1.00
2019-05-13T10:57:52.176Z,0.95
2019-05-13T10:59:26.932Z,1.00
2019-05-13T11:02:37.964Z,0.80
2019-05-13T11:04:13.555Z,0.98
2019-05-13T11:05:52.561Z,0.80
2019-05-13T11:07:26.054Z,0.90
2019-05-13T11:09:02.038Z,0.90
2019-05-13T11:10:36.519Z,1.00
2019-05-13T11:12:12.200Z,0.90
2019-05-13T11:13:54.385Z,0.98
2019-05-13T11:15:23.413Z,1.15
2019-05-13T11:16:57.622Z,1.07
2019-05-13T11:18:32.517Z,1.07
2019-05-13T11:20:08.109Z,1.05
2019-05-13T11:21:44.185Z,1.62
2019-05-13T11:23:18.956Z,1.55
2019-05-13T11:24:53.778Z,1.30
2019-05-13T11:26:27.988Z,1.10
2019-05-13T11:28:03.118Z,1.45
2019-05-13T11:29:37.405Z,1.30
2019-05-13T11:31:12.712Z,1.20
2019-05-13T11:32:46.994Z,1.30
2019-05-13T11:34:22.379Z,1.10
2019-05-13T11:35:57.091Z,1.17
2019-05-13T11:37:32.189Z,1.07
2019-05-13T11:39:08.141Z,1.22
2019-05-13T11:40:43.236Z,1.07
2019-05-13T11:42:17.516Z,1.37
2019-05-13T11:44:11.492Z,1.17
2019-05-13T11:45:28.174Z,1.20
2019-05-13T11:47:03.185Z,1.45
2019-05-13T11:48:38.222Z,1.25
2019-05-13T11:50:13.200Z,1.17
2019-05-13T11:51:47.400Z,1.07
2019-05-13T11:53:32.572Z,1.20
2019-05-13T11:55:01.790Z,1.10
2019-05-13T11:56:35.784Z,1.15
2019-05-13T11:58:13.471Z,1.07
2019-05-13T11:59:46.848Z,1.25
2019-05-13T12:01:22.834Z,1.07
2019-05-13T12:02:57.584Z,1.50
2019-05-13T12:04:34.462Z,0.95
2019-05-13T12:06:08.425Z,1.27
2019-05-13T12:07:42.626Z,1.07
2019-05-13T12:09:17.831Z,1.00
2019-05-13T12:10:52.306Z,1.30
2019-05-13T12:12:31.819Z,1.20
2019-05-13T12:14:03.967Z,1.12
2019-05-13T12:15:45.939Z,1.67
2019-05-13T12:17:14.641Z,1.60
2019-05-13T12:18:52.554Z,1.70
2019-05-13T12:20:26.183Z,1.55
2019-05-13T12:22:02.573Z,1.30
2019-05-13T12:23:37.001Z,1.40
2019-05-13T12:25:13.872Z,1.57
2019-05-13T12:26:47.961Z,1.27
2019-05-13T12:28:22.725Z,1.20
2019-05-13T12:29:57.548Z,1.47
2019-05-13T12:31:33.686Z,1.45
2019-05-13T12:33:08.040Z,1.60
2019-05-13T12:34:45.801Z,1.52
2019-05-13T12:36:19.914Z,1.50
2019-05-13T12:37:55.557Z,1.30
2019-05-13T12:39:32.054Z,1.30
2019-05-13T12:41:06.176Z,1.50
2019-05-13T12:42:46.275Z,1.30
2019-05-13T12:44:17.259Z,1.40
2019-05-13T12:45:53.329Z,1.60
2019-05-13T12:47:27.917Z,1.70
2019-05-13T12:49:03.872Z,1.27
2019-05-13T12:50:38.726Z,1.45
2019-05-13T12:52:13.353Z,1.75
2019-05-13T12:53:48.346Z,1.30
2019-05-13T12:55:22.556Z,1.50
2019-05-13T12:56:57.473Z,1.22
2019-05-13T12:58:33.928Z,1.42
2019-05-13T13:00:09.011Z,1.47
2019-05-13T13:01:43.257Z,1.57
2019-05-13T13:03:18.297Z,1.47
2019-05-13T13:05:10.490Z,1.22
2019-05-13T13:06:39.482Z,1.12
2019-05-13T13:08:18.292Z,1.40
2019-05-13T13:09:43.218Z,1.15
2019-05-13T13:11:17.929Z,1.20
2019-05-13T13:12:54.591Z,1.00
2019-05-13T13:14:38.216Z,1.30
2019-05-13T13:16:05.289Z,1.50
2019-05-13T13:17:41.469Z,1.20
2019-05-13T13:19:15.900Z,1.30
2019-05-13T13:20:57.937Z,1.20
2019-05-13T13:22:26.829Z,1.25
2019-05-13T13:24:04.559Z,1.30
2019-05-13T13:25:37.447Z,1.22
2019-05-13T13:27:20.847Z,1.10
2019-05-13T13:28:48.574Z,1.10
2019-05-13T13:30:22.938Z,1.12
2019-05-13T13:31:58.007Z,1.30
2019-05-13T13:33:34.334Z,1.22
2019-05-13T13:35:09.446Z,1.10
2019-05-13T13:36:46.090Z,1.20
2019-05-13T13:38:25.209Z,1.50
2019-05-13T13:39:56.560Z,1.00
2019-05-13T13:41:32.740Z,1.17
2019-05-13T13:43:07.276Z,1.00
2019-05-13T13:44:42.891Z,1.00
2019-05-13T13:46:36.960Z,1.00
2019-05-13T13:48:03.107Z,1.00
2019-05-13T13:49:34.533Z,1.00
2019-05-13T13:51:06.622Z,1.17
2019-05-13T13:52:45.601Z,0.90
2019-05-13T13:54:17.621Z,1.30
2019-05-13T13:55:55.793Z,1.20
2019-05-13T13:57:28.329Z,0.90
2019-05-13T13:59:04.490Z,1.20
2019-05-13T14:00:52.584Z,1.30
2019-05-13T14:02:15.191Z,1.12
2019-05-13T14:03:52.799Z,1.00
2019-05-13T14:05:25.870Z,1.30
2019-05-13T14:06:25.463Z,1.15
2019-05-13T14:06:26.943Z,1.12
2019-05-13T14:07:03.038Z,1.60
2019-05-13T14:07:22.050Z,1.02
2019-05-13T14:08:36.766Z,1.20
2019-05-13T14:10:12.033Z,1.12
2019-05-13T14:11:46.360Z,1.17
2019-05-13T14:13:21.922Z,1.40
2019-05-13T14:14:56.253Z,1.40
2019-05-13T14:16:34.893Z,1.42
2019-05-13T14:18:06.941Z,1.35
2019-05-13T14:19:42.162Z,1.65
2019-05-13T14:21:16.610Z,1.98
2019-05-13T14:22:57.505Z,1.80
2019-05-13T14:24:27.259Z,1.65
2019-05-13T14:26:02.495Z,2.22
2019-05-13T14:27:36.723Z,2.30
2019-05-13T14:29:12.332Z,2.10
2019-05-13T14:30:47.116Z,2.10
2019-05-13T14:32:22.518Z,1.85
2019-05-13T14:42:34.430Z,3.07
2019-05-13T14:44:09.197Z,2.70
2019-05-13T14:45:43.714Z,2.65
2019-05-13T14:47:18.470Z,3.12
2019-05-13T14:48:52.829Z,3.87
2019-05-13T14:50:28.681Z,3.05
2019-05-13T14:52:02.910Z,2.83
2019-05-13T14:53:37.742Z,2.20
2019-05-13T14:55:12.412Z,2.72
2019-05-13T14:56:47.201Z,3.27
2019-05-13T14:58:21.913Z,3.80
2019-05-13T14:59:56.796Z,2.87
2019-05-13T15:01:31.948Z,2.70
2019-05-13T15:03:06.888Z,2.17
2019-05-13T15:04:41.977Z,2.08
2019-05-13T15:06:21.535Z,1.90
2019-05-13T15:07:55.700Z,1.60
2019-05-13T15:09:31.469Z,1.75
2019-05-13T15:11:05.917Z,1.72
2019-05-13T15:22:42.235Z,4.00
2019-05-13T15:24:16.465Z,4.40
2019-05-13T15:25:51.509Z,2.10
2019-05-13T15:27:27.512Z,2.25
2019-05-13T15:29:04.990Z,1.92
2019-05-13T15:30:38.321Z,1.60
2019-05-13T15:32:12.599Z,1.80
2019-05-13T15:33:47.361Z,1.85
2019-05-13T15:35:22.403Z,1.60
2019-05-13T15:36:57.217Z,1.60
2019-05-13T15:38:32.093Z,1.90
2019-05-13T15:40:08.495Z,1.40
2019-05-13T15:41:43.025Z,1.55
2019-05-13T15:43:17.841Z,1.80
2019-05-13T15:44:53.096Z,1.80
2019-05-13T15:46:28.560Z,1.52
2019-05-13T15:48:03.135Z,1.60
2019-05-13T15:49:39.433Z,1.62
2019-05-13T15:51:13.646Z,1.70
2019-05-13T15:52:48.446Z,1.72
2019-05-13T15:54:23.960Z,1.52
2019-05-13T15:55:58.720Z,1.70
2019-05-13T15:57:32.997Z,2.02
2019-05-13T15:59:08.954Z,2.17
2019-05-13T16:00:43.969Z,1.92
2019-05-13T16:02:22.607Z,1.72
2019-05-13T16:03:56.053Z,1.85
2019-05-13T16:05:31.286Z,2.40
2019-05-13T16:07:06.385Z,2.70
2019-05-13T16:08:43.356Z,2.70
2019-05-13T16:10:17.264Z,2.52
2019-05-13T16:11:52.279Z,2.83
2019-05-13T16:13:26.888Z,2.92
2019-05-13T16:15:02.311Z,2.30
2019-05-13T16:16:36.768Z,1.90
2019-05-13T16:18:11.941Z,2.30
2019-05-13T16:19:46.561Z,2.30
2019-05-13T16:21:21.341Z,2.05
2019-05-13T16:22:55.661Z,1.90
2019-05-13T16:24:32.094Z,1.52
2019-05-13T16:26:06.570Z,1.80
2019-05-13T16:27:41.786Z,1.98
2019-05-13T16:29:15.980Z,1.90
2019-05-13T16:30:51.609Z,1.67
2019-05-13T16:32:26.070Z,1.80
2019-05-13T16:34:01.570Z,1.82
2019-05-13T16:35:36.157Z,2.08
2019-05-13T16:37:12.312Z,1.80
2019-05-13T16:38:46.697Z,1.70
2019-05-13T16:40:22.349Z,2.35
2019-05-13T16:41:56.829Z,2.80
2019-05-13T16:43:32.043Z,1.80
2019-05-13T16:45:07.208Z,2.15
2019-05-13T16:46:43.016Z,2.27
2019-05-13T16:48:17.274Z,1.72
2019-05-13T16:49:52.064Z,2.10
2019-05-13T16:51:27.832Z,2.00
2019-05-13T16:53:03.703Z,2.37
2019-05-13T16:54:38.517Z,2.30
2019-05-13T16:56:25.796Z,1.87
2019-05-13T16:57:51.343Z,2.33
2019-05-13T16:59:26.179Z,2.30
2019-05-13T17:01:02.503Z,2.22
2019-05-13T17:02:37.310Z,2.27
2019-05-13T17:04:12.519Z,1.85
2019-05-13T17:05:47.702Z,2.72
2019-05-13T17:07:21.998Z,2.17
2019-05-13T17:08:56.876Z,2.30
2019-05-13T17:10:31.677Z,1.77
2019-05-13T17:12:06.749Z,2.30
2019-05-13T17:13:42.172Z,2.75
2019-05-13T17:15:17.500Z,2.85
2019-05-13T17:16:52.168Z,2.67
2019-05-13T17:18:26.942Z,2.58
2019-05-13T17:20:02.377Z,2.67
2019-05-13T17:21:37.524Z,3.50
2019-05-13T17:23:13.867Z,3.72
2019-05-13T17:24:48.720Z,4.87
2019-05-13T17:26:22.951Z,4.97
2019-05-13T17:27:57.712Z,3.52
2019-05-13T17:29:32.150Z,3.30
2019-05-13T17:31:07.080Z,3.30
2019-05-13T17:32:41.290Z,2.70
2019-05-13T17:34:16.052Z,2.95
2019-05-13T17:35:50.558Z,2.40
2019-05-13T17:37:26.332Z,2.67
2019-05-13T17:39:01.860Z,2.60
2019-05-13T17:40:36.933Z,2.90
2019-05-13T17:42:12.171Z,2.67
2019-05-13T17:43:47.212Z,3.10
2019-05-13T17:45:22.101Z,3.47
2019-05-13T17:46:56.896Z,3.37
2019-05-13T17:48:32.935Z,3.22
2019-05-13T17:50:11.510Z,3.47
2019-05-13T17:51:45.057Z,2.52
2019-05-13T17:53:21.668Z,3.05
2019-05-13T17:54:56.002Z,3.08
2019-05-13T17:56:32.318Z,2.47
2019-05-13T17:58:06.593Z,2.45
2019-05-13T17:59:41.875Z,2.85
2019-05-13T18:01:16.550Z,2.33
2019-05-13T18:02:51.524Z,2.70
2019-05-13T18:04:25.805Z,2.55
2019-05-13T18:06:03.014Z,2.60
2019-05-13T18:07:37.409Z,2.37
2019-05-13T18:09:12.292Z,2.85
2019-05-13T18:10:46.593Z,2.98
2019-05-13T18:12:22.347Z,2.30
2019-05-13T18:13:56.990Z,2.92
2019-05-13T18:15:31.806Z,2.55
2019-05-13T18:17:06.429Z,2.70
2019-05-13T18:18:47.013Z,2.65
2019-05-13T18:20:17.401Z,2.85
2019-05-13T18:21:52.264Z,2.37
2019-05-13T18:23:26.545Z,2.55
2019-05-13T18:25:03.280Z,2.77
2019-05-13T18:26:37.493Z,2.72
2019-05-13T18:28:27.195Z,2.40
2019-05-13T18:29:51.332Z,2.50
2019-05-13T18:31:26.280Z,2.95
2019-05-13T18:33:01.222Z,2.65
2019-05-13T18:34:36.464Z,2.70
2019-05-13T18:36:12.014Z,2.72
2019-05-13T18:37:46.860Z,2.55
2019-05-13T18:39:21.681Z,2.40
2019-05-13T18:40:58.266Z,2.67
2019-05-13T18:42:33.965Z,2.92
2019-05-13T18:44:08.729Z,3.25
2019-05-13T18:45:43.350Z,2.90
2019-05-13T18:47:18.285Z,2.67
2019-05-13T18:48:58.745Z,2.98
2019-05-13T18:50:31.306Z,3.17
2019-05-13T18:52:06.225Z,2.55
2019-05-13T18:53:41.448Z,2.15
2019-05-13T18:55:16.018Z,2.30
2019-05-13T18:56:52.160Z,2.40
2019-05-13T18:58:27.180Z,2.98
2019-05-13T19:00:02.284Z,2.75
2019-05-13T19:01:38.165Z,2.80
2019-05-13T19:03:12.935Z,2.98
2019-05-13T19:04:47.566Z,2.98
2019-05-13T19:06:22.505Z,2.60
2019-05-13T19:07:56.958Z,3.02
2019-05-13T19:09:31.718Z,2.65
2019-05-13T19:11:06.348Z,3.22
2019-05-13T19:12:42.076Z,3.10
2019-05-13T19:14:16.730Z,3.45
2019-05-13T19:15:51.805Z,3.58
2019-05-13T19:17:27.998Z,2.87
2019-05-13T19:19:12.519Z,3.00
2019-05-13T19:20:39.242Z,2.87
2019-05-13T19:22:14.003Z,3.30
2019-05-13T19:23:48.722Z,2.52
2019-05-13T19:25:23.520Z,3.58
2019-05-13T19:26:57.728Z,2.95
2019-05-13T19:28:32.493Z,3.80
2019-05-13T19:30:07.196Z,2.83
2019-05-13T19:31:42.079Z,3.30
2019-05-13T19:33:16.217Z,3.10
2019-05-13T19:34:52.294Z,2.67
2019-05-13T19:36:28.434Z,3.52
2019-05-13T19:38:04.596Z,3.05
2019-05-13T19:39:38.809Z,3.17
2019-05-13T19:41:13.621Z,2.80
2019-05-13T19:42:48.135Z,2.83
2019-05-13T19:44:22.902Z,3.00
2019-05-13T19:45:57.112Z,3.12
2019-05-13T19:47:33.876Z,3.50
2019-05-13T19:49:12.291Z,3.50
2019-05-13T19:50:46.518Z,3.25
2019-05-13T19:52:21.377Z,3.42
2019-05-13T19:53:56.008Z,3.62
2019-05-13T19:55:30.332Z,3.50
2019-05-13T19:57:05.110Z,3.83
2019-05-13T19:58:39.397Z,3.47
2019-05-13T20:00:14.479Z,3.72
2019-05-13T20:01:51.385Z,3.65
2019-05-13T20:03:25.279Z,3.80
2019-05-13T20:05:01.205Z,4.25
2019-05-13T20:06:36.209Z,4.08
2019-05-13T20:08:10.556Z,3.98
2019-05-13T20:09:45.295Z,3.85
2019-05-13T20:11:21.870Z,4.25
2019-05-13T20:12:56.889Z,4.15
2019-05-13T20:14:31.214Z,4.03
2019-05-13T20:16:06.045Z,4.03
2019-05-13T20:17:41.623Z,3.98
2019-05-13T20:19:16.664Z,4.25
2019-05-13T20:20:51.854Z,4.60
2019-05-13T20:22:27.016Z,4.40
2019-05-13T20:24:01.270Z,5.20
2019-05-13T20:25:36.024Z,4.75
2019-05-13T20:27:12.023Z,4.67
2019-05-13T20:28:46.758Z,4.87
2019-05-13T20:30:21.901Z,4.62
2019-05-13T20:31:56.874Z,5.10
2019-05-13T20:33:32.135Z,5.53
2019-05-13T20:35:07.230Z,4.92
2019-05-13T20:36:42.286Z,5.50
2019-05-13T20:38:17.423Z,5.30
2019-05-13T20:39:52.875Z,4.83
2019-05-13T20:41:28.671Z,5.33
2019-05-13T20:43:02.934Z,5.40
2019-05-13T20:44:37.706Z,5.15
2019-05-13T20:46:12.030Z,5.65
2019-05-13T20:47:46.792Z,5.95
2019-05-13T20:49:21.825Z,5.67
2019-05-13T20:50:57.053Z,5.33
2019-05-13T20:52:31.576Z,5.60
2019-05-13T20:54:06.420Z,6.25
2019-05-13T20:55:41.758Z,6.28
2019-05-13T20:57:16.917Z,6.33
2019-05-13T20:58:51.660Z,6.60
2019-05-13T21:00:26.681Z,6.25
2019-05-13T21:02:02.362Z,6.35
2019-05-13T21:03:37.512Z,7.70
2019-05-13T21:05:12.255Z,7.65
2019-05-13T21:06:47.012Z,7.25
2019-05-13T21:08:21.778Z,7.37
2019-05-13T21:09:56.953Z,6.60
2019-05-13T21:11:31.425Z,7.28
2019-05-13T21:13:06.253Z,8.65
2019-05-13T21:14:41.329Z,6.87
2019-05-13T21:16:16.637Z,7.22
2019-05-13T21:17:51.578Z,7.85
2019-05-13T21:19:26.794Z,7.92
2019-05-13T21:21:02.478Z,8.38
2019-05-13T21:22:37.244Z,9.00
2019-05-13T21:24:11.755Z,8.78
2019-05-13T21:25:46.522Z,8.53
2019-05-13T21:27:20.732Z,9.18
2019-05-13T21:28:55.488Z,8.23
2019-05-13T21:30:31.553Z,8.70
2019-05-13T21:32:06.319Z,8.90